• Join FlightAware (Why Join?)
  • Login
  • US Flag 
08:24AM EDT


 

Airport Tracker/Info


-or-


 

Live Flight TrackerFlight Track Log ✈ AAR8738 ✈ 22-Sep-2013 ✈ RKJY / RSU - RKSS / GMP

Flight Track Log - Related Links

Times and Time Zones

All times are in EDT time to prevent confusion due to time zone crossing. See the AAR8738 flight status page for this flight to view local times or setup timezone preferences in your user account.

Time Position Orientation Groundspeed Altitude Reporting Facility
EDT Latitude Longitude Course Direction KTS MPH feet Rate Location/Type
06:04AM 35.2185 127.5039 346° North  Level Estimated
06:05AM 35.2943 127.4815 346° North  Level Estimated
06:06AM 35.3700 127.4590 346° North  Level Estimated
06:07AM 35.4457 127.4365 346° North  Level Estimated
06:08AM 35.5214 127.4140 346° North  Level Estimated
06:09AM 35.5971 127.3914 346° North  Level Estimated
06:10AM 35.6728 127.3688 346° North  Level Estimated
06:11AM 35.7486 127.3461 346° North  Level Estimated
06:12AM 35.8242 127.3234 346° North  Level Estimated
06:13AM 35.8999 127.3007 346° North  Level Estimated
06:14AM 35.9756 127.2779 346° North  Level Estimated
06:15AM 36.0513 127.2550 346° North  Level Estimated
06:16AM 36.1270 127.2322 346° North  Level Estimated
06:17AM 36.2027 127.2092 346° North  Level Estimated
06:18AM 36.2784 127.1863 346° North  Level Estimated
06:19AM 36.3540 127.1632 346° North  Level Estimated
06:20AM 36.4297 127.1402 346° North  Level Estimated
06:21AM 36.5054 127.1171 346° North  Level Estimated
06:22AM 36.5810 127.0939 346° North  Level Estimated
06:23AM 36.6567 127.0707 346° North  Level Estimated
06:24AM 36.7323 127.0475 346° North  Level Estimated
06:25AM 36.8080 127.0242 346° North  Level Estimated
06:26AM 36.8836 127.0009 346° North  Level Estimated
06:27AM 36.9593 126.9775 346° North  Level Estimated
06:28AM 37.0349 126.9540 346° North  Level Estimated
06:28AM 37.3950 126.9630 346° North 10,300  Level FlightAware
06:29AM 37.1105 126.9306 346° North  Level Estimated
06:29AM 37.4150 126.9230 302° West 310 357 9,900  Level FlightAware
06:29AM 37.4210 126.9040 292° West 183 211 9,700 -1,020 Descending FlightAware
06:30AM 37.4430 126.8350 292° West 304 350 8,900 -1,140 Descending FlightAware
06:32AM 37.5583 126.7906 343° North  Level Estimated
06:33AM 37.5583 126.7906 288° West  Level Estimated
06:34AM 37.5583 126.7906 288° West  Level Estimated
06:35AM 37.5583 126.7906 288° West  Level Estimated
06:36AM 37.5583 126.7906 288° West  Level Estimated
06:37AM 37.5583 126.7906 288° West  Level Estimated
06:38AM 37.5583 126.7906 288° West  Level Estimated
06:39AM 37.5583 126.7906 288° West  Level Estimated
06:40AM 37.5583 126.7906 288° West  Level Estimated
06:41AM 37.5583 126.7906 288° West  Level Estimated
06:42AM 37.5583 126.7906 288° West  Level Estimated
06:43AM 37.5583 126.7906 288° West  Level Estimated
06:44AM 37.5583 126.7906 288° West  Level Estimated
06:45AM 37.5583 126.7906 288° West  Level Estimated
06:46AM 37.5583 126.7906 288° West  Level Estimated
06:47AM 37.5583 126.7906 288° West  Level Estimated
06:48AM 37.5583 126.7906 288° West  Level Estimated
06:49AM 37.5583 126.7906 288° West  Level Estimated
06:50AM 37.5583 126.7906 288° West  Level Estimated
06:51AM 37.5583 126.7906 288° West  Level Estimated